createdAt,value
2022-08-03T14:55:21.485Z,29.42
2022-08-03T14:57:51.658Z,29.58
2022-08-03T15:00:22.104Z,29.63
2022-08-03T15:02:52.231Z,29.72
2022-08-03T15:05:22.368Z,29.80
2022-08-03T15:07:52.450Z,29.85
2022-08-03T15:10:22.863Z,29.88
2022-08-03T15:13:00.764Z,29.95
2022-08-03T15:15:30.729Z,29.99
2022-08-03T15:18:00.957Z,30.01
2022-08-03T15:20:42.974Z,30.03
2022-08-03T15:23:15.183Z,30.05
2022-08-03T15:26:29.553Z,30.07
2022-08-03T15:28:37.692Z,30.07
2022-08-03T15:31:09.134Z,30.08
2022-08-03T15:33:39.875Z,30.08
2022-08-03T15:36:10.161Z,30.04
2022-08-03T15:38:40.214Z,30.01
2022-08-03T15:41:13.783Z,29.99
2022-08-03T15:43:47.597Z,29.95
2022-08-03T15:46:33.040Z,29.96
2022-08-03T15:49:03.145Z,29.93
2022-08-03T15:51:33.107Z,29.96
2022-08-03T15:54:03.112Z,29.95
2022-08-03T15:56:34.740Z,29.93
2022-08-03T15:59:12.515Z,29.92
2022-08-03T16:01:44.397Z,29.94
2022-08-03T16:04:14.698Z,29.96
2022-08-03T16:06:44.960Z,29.93
2022-08-03T16:09:24.053Z,29.92
2022-08-03T16:12:05.511Z,29.94
2022-08-03T16:14:52.351Z,29.94
2022-08-03T16:17:23.983Z,29.96
2022-08-03T16:19:54.830Z,29.97
2022-08-03T16:22:26.278Z,29.99
2022-08-03T16:24:56.701Z,30.01
2022-08-03T16:27:36.962Z,29.97
2022-08-03T16:30:21.793Z,29.95
2022-08-03T16:32:51.894Z,29.92
2022-08-03T16:35:21.908Z,29.92
2022-08-03T16:37:56.384Z,29.88
2022-08-03T16:40:28.504Z,29.85
2022-08-03T16:42:58.692Z,29.86
2022-08-03T16:45:29.066Z,29.85
2022-08-03T16:48:01.640Z,29.84
2022-08-03T16:50:37.997Z,29.82
2022-08-03T16:53:15.653Z,29.82
2022-08-03T16:55:53.411Z,29.81
2022-08-03T16:58:41.875Z,29.79
2022-08-03T17:01:21.618Z,29.77
2022-08-03T17:04:03.391Z,29.81
2022-08-03T17:06:45.064Z,29.80
2022-08-03T17:09:18.310Z,29.73
2022-08-03T17:11:53.267Z,29.78
2022-08-03T17:14:29.295Z,29.78
2022-08-03T17:17:03.760Z,29.77
2022-08-03T17:19:35.446Z,29.78
2022-08-03T17:22:20.268Z,29.81
2022-08-03T17:24:54.837Z,29.77
2022-08-03T17:28:48.090Z,29.78
2022-08-03T17:30:21.880Z,29.83
2022-08-03T17:32:57.522Z,29.81
2022-08-03T17:35:34.435Z,29.77
2022-08-03T17:38:12.064Z,29.80
2022-08-03T17:40:49.988Z,29.79
2022-08-03T17:44:13.974Z,29.80
2022-08-03T17:46:12.493Z,29.78
2022-08-03T17:48:43.714Z,29.76
2022-08-03T17:51:25.819Z,29.76
2022-08-03T17:54:03.488Z,29.76
2022-08-03T17:56:44.439Z,29.80
2022-08-03T17:59:50.779Z,29.79
2022-08-03T18:02:57.370Z,29.81
2022-08-03T18:06:11.660Z,29.81
2022-08-03T18:08:32.361Z,29.83
2022-08-03T18:11:09.575Z,29.86
2022-08-03T18:14:09.939Z,29.87
2022-08-03T18:16:54.740Z,29.86
2022-08-03T18:20:01.896Z,29.89
2022-08-03T18:22:16.349Z,29.91
2022-08-03T18:24:51.626Z,29.89
2022-08-03T18:27:24.048Z,29.88
2022-08-03T18:30:17.355Z,29.85
2022-08-03T18:33:00.469Z,29.89
2022-08-03T18:35:52.877Z,29.90
2022-08-03T18:38:24.429Z,29.91
2022-08-03T18:40:54.707Z,29.87
2022-08-03T18:43:47.495Z,29.89
2022-08-03T18:46:38.295Z,29.88
2022-08-03T18:49:29.188Z,29.88
2022-08-03T18:52:13.462Z,29.88
2022-08-03T18:55:06.554Z,29.87
2022-08-03T18:58:07.423Z,29.86
2022-08-03T19:00:53.982Z,29.84
2022-08-03T19:03:42.847Z,29.86
2022-08-03T19:06:26.681Z,29.86
2022-08-03T19:08:58.331Z,29.86
2022-08-03T19:12:12.335Z,29.84
2022-08-03T19:14:51.918Z,29.83
2022-08-03T19:17:29.225Z,29.81
2022-08-03T19:20:01.588Z,29.81
2022-08-03T19:22:33.050Z,29.84
2022-08-03T19:25:05.311Z,29.83
2022-08-03T19:27:36.507Z,29.85
2022-08-03T19:30:21.979Z,29.81
2022-08-03T19:32:57.483Z,29.83
2022-08-03T19:38:29.313Z,29.84
2022-08-03T19:41:06.421Z,29.81
2022-08-03T19:43:52.671Z,29.79
2022-08-03T19:46:30.300Z,29.81
2022-08-03T19:52:03.570Z,29.80
2022-08-03T19:54:45.749Z,29.79
2022-08-03T19:57:27.461Z,29.78
2022-08-03T19:59:59.011Z,29.77
2022-08-03T20:02:36.409Z,29.79
2022-08-03T20:05:14.843Z,29.76
2022-08-03T20:07:47.445Z,29.79
2022-08-03T20:10:20.270Z,29.80
2022-08-03T20:12:51.749Z,29.81
2022-08-03T20:18:17.024Z,29.78
2022-08-03T20:20:50.863Z,29.78
2022-08-03T20:23:22.706Z,29.75
2022-08-03T20:26:02.169Z,29.76
2022-08-03T20:28:50.089Z,29.78
2022-08-03T20:31:32.475Z,29.76
2022-08-03T20:34:07.442Z,29.73
2022-08-03T20:36:39.229Z,29.70
2022-08-03T20:39:09.274Z,29.72
2022-08-03T20:41:40.194Z,29.71
2022-08-03T20:44:10.374Z,29.73
2022-08-03T20:46:53.478Z,29.72
2022-08-03T20:49:45.612Z,29.70
2022-08-03T20:52:18.589Z,29.71
2022-08-03T20:54:50.341Z,29.68
2022-08-03T20:57:22.801Z,29.69
2022-08-03T20:59:52.626Z,29.72
2022-08-03T21:02:29.732Z,29.70
2022-08-03T21:05:03.048Z,29.72
2022-08-03T21:08:05.661Z,29.72
2022-08-03T21:13:03.003Z,29.81
2022-08-03T21:13:03.792Z,29.81
2022-08-03T21:13:08.184Z,29.73
2022-08-03T21:13:10.601Z,29.84
2022-08-03T21:13:49.357Z,29.69
2022-08-03T21:16:23.835Z,29.69
2022-08-03T21:18:55.203Z,29.70
2022-08-03T21:21:26.278Z,29.68
2022-08-03T21:23:57.618Z,29.68
2022-08-03T21:26:29.741Z,29.68
2022-08-03T21:28:59.902Z,29.69
2022-08-03T21:31:30.352Z,29.67
2022-08-03T21:34:04.273Z,29.68
2022-08-03T21:36:38.188Z,29.68
2022-08-03T21:39:11.284Z,29.68
2022-08-03T21:41:42.874Z,29.63
2022-08-03T21:44:13.642Z,29.66
2022-08-03T21:46:45.334Z,29.65
2022-08-03T21:50:07.691Z,29.67
2022-08-03T21:52:08.238Z,29.65
2022-08-03T21:54:44.674Z,29.62
2022-08-03T21:57:28.217Z,29.64
2022-08-03T22:00:04.409Z,29.62
2022-08-03T22:02:53.050Z,29.66
2022-08-03T22:05:28.827Z,29.66
2022-08-03T22:07:59.859Z,29.70
2022-08-03T22:10:31.019Z,29.67
2022-08-03T22:13:01.121Z,29.66
2022-08-03T22:15:31.226Z,29.66
2022-08-03T22:18:05.605Z,29.66
2022-08-03T22:20:35.895Z,29.66
2022-08-03T22:23:08.993Z,29.62
2022-08-03T22:25:42.048Z,29.63
2022-08-03T22:28:14.380Z,29.63
2022-08-03T22:30:45.735Z,29.65
2022-08-03T22:33:17.668Z,29.68
2022-08-03T22:35:51.929Z,29.67
2022-08-03T22:38:22.193Z,29.68
2022-08-03T22:40:53.108Z,29.68
2022-08-03T22:43:29.538Z,29.68
2022-08-03T22:46:11.197Z,29.67
2022-08-03T22:48:42.629Z,29.66
2022-08-03T22:51:12.933Z,29.68
2022-08-03T22:53:43.169Z,29.66
2022-08-03T22:56:14.082Z,29.65
2022-08-03T22:58:44.454Z,29.67
